Sitges, Spain
Current Conditions -  °F | °C
As of 8:30 AM on Wednesday 22 Oct 2014 (Local Time) from LEBL Reporting Station
Few Clouds Few Clouds  
Wind Chill: 17°   Ceiling: Unl
Heat Index: 17°   Visibility: 6mi
Dew Point: 10°   Wind: 9mph
Humidity: 63%   Direction: 350°N
Pressure: 30.12"   Gusts: NA
Location:  41.24°N, 1.81°E
Report Text: LEBL 220630Z 35008KT 9999 FEW025 17/10 Q1020 NOSIG
Loading
Personal Weather Stations






























Interactive Weather Map
Tropical Storm Tracking
New forecast layout! Learn more

10-Day Weather Forecast

Advertisements
Track Severe Weather on mobile